createdAt,value
2023-02-08T00:00:54.002Z,3.17
2023-02-08T00:03:20.674Z,3.12
2023-02-08T00:05:47.254Z,3.03
2023-02-08T00:08:13.817Z,3.00
2023-02-08T00:10:40.686Z,2.96
2023-02-08T00:13:07.398Z,2.94
2023-02-08T00:15:33.977Z,2.92
2023-02-08T00:18:00.719Z,2.90
2023-02-08T00:20:27.282Z,2.83
2023-02-08T00:22:53.858Z,2.80
2023-02-08T00:25:20.800Z,2.88
2023-02-08T00:27:47.442Z,2.81
2023-02-08T00:30:14.120Z,2.69
2023-02-08T00:32:40.673Z,2.87
2023-02-08T00:35:07.595Z,2.82
2023-02-08T00:37:34.210Z,2.72
2023-02-08T00:40:02.513Z,2.89
2023-02-08T00:42:30.119Z,2.81
2023-02-08T00:44:56.858Z,2.89
2023-02-08T00:47:24.199Z,2.84
2023-02-08T00:49:51.294Z,2.82
2023-02-08T00:52:18.463Z,2.85
2023-02-08T00:54:44.975Z,2.94
2023-02-08T00:57:11.497Z,2.87
2023-02-08T00:59:38.017Z,2.65
2023-02-08T01:02:05.050Z,2.59
2023-02-08T01:04:31.772Z,2.86
2023-02-08T01:06:58.469Z,2.54
2023-02-08T01:09:25.192Z,2.81
2023-02-08T01:11:51.784Z,2.77
2023-02-08T01:14:18.468Z,2.84
2023-02-08T01:16:44.999Z,2.79
2023-02-08T01:19:13.335Z,2.83
2023-02-08T01:21:41.598Z,2.82
2023-02-08T01:24:08.694Z,2.16
2023-02-08T01:26:35.438Z,2.33
2023-02-08T01:29:05.356Z,2.48
2023-02-08T01:31:35.644Z,2.60
2023-02-08T01:34:03.007Z,2.66
2023-02-08T01:36:30.916Z,2.15
2023-02-08T01:38:57.860Z,2.56
2023-02-08T01:41:27.928Z,2.43
2023-02-08T01:44:11.684Z,2.63
2023-02-08T01:46:39.491Z,2.55
2023-02-08T01:49:12.845Z,2.54
2023-02-08T01:51:45.400Z,2.43
2023-02-08T01:54:14.604Z,2.50
2023-02-08T01:56:45.743Z,2.59
2023-02-08T01:59:17.832Z,2.40
2023-02-08T02:01:46.242Z,2.46
2023-02-08T02:04:13.525Z,2.24
2023-02-08T02:06:45.534Z,2.46
2023-02-08T02:09:18.288Z,2.46
2023-02-08T02:11:44.919Z,2.53
2023-02-08T02:14:12.202Z,2.40
2023-02-08T02:16:38.816Z,2.39
2023-02-08T02:19:13.644Z,1.94
2023-02-08T02:21:51.007Z,2.18
2023-02-08T02:24:26.529Z,2.39
2023-02-08T02:27:28.129Z,2.37
2023-02-08T02:30:15.476Z,2.44
2023-02-08T02:32:54.423Z,2.42
2023-02-08T02:35:39.321Z,2.26
2023-02-08T02:38:32.420Z,2.23
2023-02-08T02:42:03.040Z,2.03
2023-02-08T02:44:41.933Z,2.14
2023-02-08T02:47:11.480Z,1.81
2023-02-08T02:50:18.427Z,2.15
2023-02-08T02:53:03.080Z,2.16
2023-02-08T02:55:36.041Z,2.30
2023-02-08T02:58:05.263Z,2.07
2023-02-08T03:00:32.956Z,2.20
2023-02-08T03:02:59.487Z,2.14
2023-02-08T03:05:27.904Z,2.17
2023-02-08T03:08:21.119Z,2.24
2023-02-08T03:11:15.676Z,2.08
2023-02-08T03:14:04.862Z,2.05
2023-02-08T03:17:11.316Z,2.18
2023-02-08T03:19:59.636Z,2.06
2023-02-08T03:22:44.136Z,2.13
2023-02-08T03:25:37.431Z,1.87
2023-02-08T03:28:22.530Z,1.94
2023-02-08T03:31:05.417Z,1.97
2023-02-08T03:33:46.456Z,2.10
2023-02-08T03:36:21.890Z,2.01
2023-02-08T03:38:51.069Z,1.68
2023-02-08T03:41:24.538Z,1.85
2023-02-08T03:43:58.459Z,1.91
2023-02-08T03:46:30.789Z,1.72
2023-02-08T03:49:04.463Z,1.59
2023-02-08T03:51:32.855Z,1.90
2023-02-08T03:54:02.674Z,1.88
2023-02-08T03:56:38.834Z,1.61
2023-02-08T03:59:11.870Z,1.64
2023-02-08T04:01:44.949Z,1.79
2023-02-08T04:04:15.837Z,1.90
2023-02-08T04:06:42.375Z,1.93
2023-02-08T04:09:09.157Z,1.72
2023-02-08T04:11:35.713Z,1.63
2023-02-08T04:14:02.236Z,1.86
2023-02-08T04:16:28.779Z,1.95
2023-02-08T04:18:55.350Z,1.96
2023-02-08T04:21:21.958Z,1.94
2023-02-08T04:23:48.526Z,1.63
2023-02-08T04:26:15.031Z,1.90
2023-02-08T04:28:41.626Z,1.92
2023-02-08T04:31:08.191Z,1.49
2023-02-08T04:33:34.811Z,1.68
2023-02-08T04:36:01.586Z,1.65
2023-02-08T04:38:28.192Z,1.88
2023-02-08T04:40:54.721Z,1.69
2023-02-08T04:43:21.279Z,1.56
2023-02-08T04:45:50.447Z,1.79
2023-02-08T04:48:18.033Z,1.74
2023-02-08T04:50:44.574Z,1.69
2023-02-08T04:53:11.409Z,1.77
2023-02-08T04:55:38.001Z,1.76
2023-02-08T04:58:04.925Z,1.78
2023-02-08T05:00:31.797Z,1.81
2023-02-08T05:02:58.775Z,1.66
2023-02-08T05:05:27.125Z,1.55
2023-02-08T05:07:54.060Z,1.58
2023-02-08T05:10:20.595Z,1.77
2023-02-08T05:12:47.172Z,1.72
2023-02-08T05:15:13.733Z,1.68
2023-02-08T05:17:40.265Z,1.79
2023-02-08T05:20:08.064Z,1.66
2023-02-08T05:22:34.652Z,1.66
2023-02-08T05:25:01.547Z,1.82
2023-02-08T05:27:28.096Z,1.56
2023-02-08T05:29:54.693Z,1.56
2023-02-08T05:32:21.199Z,1.64
2023-02-08T05:34:47.874Z,1.61
2023-02-08T05:37:14.407Z,1.61
2023-02-08T05:39:41.027Z,1.05
2023-02-08T05:42:07.617Z,1.54
2023-02-08T05:44:34.152Z,1.58
2023-02-08T05:47:00.771Z,1.59
2023-02-08T05:49:27.478Z,1.64
2023-02-08T05:51:54.019Z,1.47
2023-02-08T05:54:20.549Z,1.51
2023-02-08T05:56:47.120Z,1.50
2023-02-08T05:59:13.639Z,1.58
2023-02-08T06:01:40.196Z,1.53
2023-02-08T06:04:06.789Z,1.45
2023-02-08T06:06:33.412Z,1.50
2023-02-08T06:08:59.936Z,1.57
2023-02-08T06:11:27.534Z,1.42
2023-02-08T06:13:54.112Z,1.51
2023-02-08T06:16:20.691Z,1.29
2023-02-08T06:18:47.300Z,1.43
2023-02-08T06:21:13.935Z,1.39
2023-02-08T06:23:41.134Z,1.41
2023-02-08T06:26:07.726Z,1.47
2023-02-08T06:28:34.259Z,1.44
2023-02-08T06:31:00.826Z,1.39
2023-02-08T06:33:27.577Z,1.37
2023-02-08T06:35:54.166Z,1.28
2023-02-08T06:38:20.691Z,1.26
2023-02-08T06:40:48.398Z,1.39
2023-02-08T06:43:15.491Z,1.46
2023-02-08T06:45:45.384Z,1.32
2023-02-08T06:48:12.435Z,1.25
2023-02-08T06:50:39.229Z,1.29
2023-02-08T06:53:05.970Z,1.32
2023-02-08T06:55:32.769Z,1.49
2023-02-08T06:57:59.333Z,1.16
2023-02-08T07:00:25.865Z,1.43
2023-02-08T07:02:52.623Z,1.36
2023-02-08T07:05:19.216Z,1.49
2023-02-08T07:07:48.378Z,1.55
2023-02-08T07:10:15.813Z,1.56
2023-02-08T07:12:42.372Z,1.31
2023-02-08T07:15:10.052Z,1.57
2023-02-08T07:17:36.621Z,1.96
2023-02-08T07:20:03.290Z,2.13
2023-02-08T07:22:29.978Z,2.15
2023-02-08T07:24:56.530Z,2.20
2023-02-08T07:27:25.035Z,2.11
2023-02-08T07:29:52.542Z,1.96
2023-02-08T07:32:19.068Z,2.19
2023-02-08T07:34:46.456Z,1.94
2023-02-08T07:37:13.052Z,1.85
2023-02-08T07:39:39.808Z,2.22
2023-02-08T07:42:08.396Z,2.24
2023-02-08T07:44:41.715Z,2.54
2023-02-08T07:47:08.589Z,2.70
2023-02-08T07:49:35.213Z,2.72
2023-02-08T07:52:01.789Z,2.29
2023-02-08T07:54:29.418Z,2.26
2023-02-08T07:56:56.706Z,2.66
2023-02-08T07:59:23.508Z,2.58
2023-02-08T08:01:50.074Z,2.48
2023-02-08T08:04:16.740Z,1.97
2023-02-08T08:06:43.335Z,2.38
2023-02-08T08:09:09.959Z,2.90
2023-02-08T08:11:36.525Z,2.54
2023-02-08T08:14:03.170Z,2.37
2023-02-08T08:16:29.751Z,2.97
2023-02-08T08:18:56.354Z,2.77
2023-02-08T08:21:22.890Z,2.48
2023-02-08T08:23:49.434Z,2.69
2023-02-08T08:26:19.564Z,2.52
2023-02-08T08:28:46.719Z,3.20
2023-02-08T08:31:18.840Z,3.21
2023-02-08T08:33:45.869Z,3.07
2023-02-08T08:36:12.721Z,3.01
2023-02-08T08:38:40.814Z,3.13
2023-02-08T08:41:16.986Z,3.36
2023-02-08T08:43:44.059Z,3.49
2023-02-08T08:46:10.886Z,3.47
2023-02-08T08:48:38.819Z,3.72
2023-02-08T08:51:06.154Z,3.75
2023-02-08T08:53:33.271Z,3.99
2023-02-08T08:55:59.852Z,4.07
2023-02-08T08:58:26.357Z,3.46
2023-02-08T09:00:53.941Z,4.08
2023-02-08T09:03:20.525Z,4.09
2023-02-08T09:05:47.164Z,4.55
2023-02-08T09:08:13.814Z,4.94
2023-02-08T09:10:41.065Z,4.81
2023-02-08T09:13:08.321Z,4.62
2023-02-08T09:15:39.542Z,4.84
2023-02-08T09:18:06.480Z,5.14
2023-02-08T09:20:33.023Z,5.36
2023-02-08T09:22:59.766Z,5.08
2023-02-08T09:25:27.136Z,5.21
2023-02-08T09:27:53.829Z,5.44
2023-02-08T09:30:20.693Z,5.43
2023-02-08T09:32:47.315Z,5.31
2023-02-08T09:35:15.319Z,5.13
2023-02-08T09:37:41.976Z,4.81
2023-02-08T09:40:21.863Z,4.84
2023-02-08T09:42:59.535Z,4.87
2023-02-08T09:45:51.239Z,5.56
2023-02-08T09:48:33.956Z,5.57
2023-02-08T09:51:40.351Z,5.63
2023-02-08T09:54:33.293Z,5.69
2023-02-08T09:57:04.197Z,5.61
2023-02-08T09:59:33.787Z,5.86
2023-02-08T10:02:25.202Z,6.12
2023-02-08T10:05:24.217Z,6.01
2023-02-08T10:07:50.811Z,6.48
2023-02-08T10:10:33.397Z,6.46
2023-02-08T10:13:41.006Z,5.87
2023-02-08T10:16:16.547Z,5.54
2023-02-08T10:19:14.670Z,5.80
2023-02-08T10:22:04.449Z,5.82
2023-02-08T10:25:06.494Z,5.85
2023-02-08T10:27:47.320Z,5.92
2023-02-08T10:30:45.163Z,6.87
2023-02-08T10:33:22.445Z,6.49
2023-02-08T10:35:50.636Z,7.16
2023-02-08T10:38:20.239Z,7.54
2023-02-08T10:41:00.482Z,7.09
2023-02-08T10:43:34.049Z,7.17
2023-02-08T10:46:32.339Z,7.99
2023-02-08T10:49:08.233Z,8.02
2023-02-08T10:51:35.218Z,7.66
2023-02-08T10:54:01.774Z,8.14
2023-02-08T10:56:43.751Z,7.87
2023-02-08T10:59:38.454Z,7.81
2023-02-08T11:02:20.499Z,8.15
2023-02-08T11:04:59.677Z,7.97
2023-02-08T11:07:26.357Z,8.04
2023-02-08T11:09:52.960Z,9.54
2023-02-08T11:12:22.663Z,10.97
2023-02-08T11:14:52.145Z,11.95
2023-02-08T11:17:25.828Z,13.50
2023-02-08T11:19:52.825Z,16.17
2023-02-08T11:22:21.114Z,15.54
2023-02-08T11:25:22.478Z,14.75
2023-02-08T11:27:49.215Z,14.72
2023-02-08T11:30:15.974Z,15.87
2023-02-08T11:32:45.437Z,17.38
2023-02-08T11:35:22.360Z,17.96
2023-02-08T11:37:54.362Z,18.91
2023-02-08T11:40:35.813Z,19.73
2023-02-08T11:43:03.751Z,19.41
2023-02-08T11:45:32.975Z,19.63
2023-02-08T11:48:01.767Z,20.19
2023-02-08T11:50:31.254Z,19.79
2023-02-08T11:53:03.411Z,18.62
2023-02-08T11:55:33.214Z,17.79
2023-02-08T11:58:11.632Z,16.91
2023-02-08T12:00:40.194Z,14.40
2023-02-08T12:03:24.752Z,12.35
2023-02-08T12:06:16.031Z,12.25
2023-02-08T12:09:11.903Z,11.60
2023-02-08T12:11:50.064Z,11.98
2023-02-08T12:14:25.622Z,12.33
2023-02-08T12:17:06.778Z,11.80
2023-02-08T12:19:52.006Z,11.62
2023-02-08T12:22:29.764Z,12.30
2023-02-08T12:25:23.973Z,12.00
2023-02-08T12:28:02.415Z,13.59
2023-02-08T12:31:09.379Z,14.10
2023-02-08T12:33:36.847Z,15.13
2023-02-08T12:36:21.430Z,17.71
2023-02-08T12:39:21.190Z,19.19
2023-02-08T12:42:08.503Z,18.72
2023-02-08T12:44:58.517Z,19.26
2023-02-08T12:48:03.065Z,20.07
2023-02-08T12:51:07.951Z,19.85
2023-02-08T12:53:41.307Z,19.72
2023-02-08T12:56:18.727Z,19.15
2023-02-08T12:58:47.893Z,19.97
2023-02-08T13:01:22.431Z,21.73
2023-02-08T13:03:55.335Z,21.79
2023-02-08T13:06:25.296Z,21.30
2023-02-08T13:09:01.683Z,23.30
2023-02-08T13:11:59.616Z,23.17
2023-02-08T13:14:32.990Z,21.96
2023-02-08T13:17:31.775Z,20.37
2023-02-08T13:20:04.242Z,19.46
2023-02-08T13:22:34.642Z,16.88
2023-02-08T13:25:08.472Z,16.74
2023-02-08T13:27:35.551Z,16.58
2023-02-08T13:30:02.598Z,18.39
2023-02-08T13:32:44.062Z,18.97
2023-02-08T13:35:19.447Z,18.60
2023-02-08T13:38:13.321Z,21.86
2023-02-08T13:40:40.107Z,21.69
2023-02-08T13:43:34.087Z,22.07
2023-02-08T13:46:02.516Z,21.44
2023-02-08T13:48:51.461Z,20.40
2023-02-08T13:51:33.243Z,20.11
2023-02-08T13:54:00.191Z,19.51
2023-02-08T13:56:35.656Z,18.21
2023-02-08T13:59:02.279Z,16.94
2023-02-08T14:01:34.401Z,15.78
2023-02-08T14:04:06.984Z,15.77
2023-02-08T14:06:48.989Z,15.18
2023-02-08T14:09:15.472Z,14.68
2023-02-08T14:12:00.640Z,14.22
2023-02-08T14:14:30.952Z,12.90
2023-02-08T14:17:19.981Z,12.32
2023-02-08T14:19:57.673Z,10.47
2023-02-08T14:22:26.348Z,10.15
2023-02-08T14:25:06.373Z,9.72
2023-02-08T14:27:39.964Z,9.98
2023-02-08T14:30:20.275Z,10.24
2023-02-08T14:32:53.222Z,11.65
2023-02-08T14:35:26.328Z,11.35
2023-02-08T14:38:24.088Z,11.79
2023-02-08T14:40:59.253Z,10.71
2023-02-08T14:43:38.864Z,10.29
2023-02-08T14:46:40.147Z,11.92
2023-02-08T14:49:12.668Z,13.19
2023-02-08T14:51:45.106Z,13.63
2023-02-08T14:58:42.918Z,13.74
2023-02-08T15:01:18.485Z,13.62
2023-02-08T15:03:47.180Z,13.57
2023-02-08T15:06:39.622Z,13.11
2023-02-08T15:09:12.861Z,13.11
2023-02-08T15:11:40.740Z,12.80
2023-02-08T15:14:14.109Z,13.14
2023-02-08T15:16:43.599Z,13.42
2023-02-08T15:19:20.980Z,12.73
2023-02-08T15:21:47.579Z,11.57
2023-02-08T15:24:19.627Z,10.94
2023-02-08T15:26:52.041Z,10.21
2023-02-08T15:29:42.963Z,10.18
2023-02-08T15:32:17.719Z,9.42
2023-02-08T15:34:46.617Z,8.81
2023-02-08T15:37:17.007Z,7.46
2023-02-08T15:39:43.705Z,7.08
2023-02-08T15:42:18.545Z,7.60
2023-02-08T15:44:46.004Z,7.75
2023-02-08T15:47:36.108Z,7.15
2023-02-08T15:50:06.448Z,7.10
2023-02-08T15:52:36.039Z,7.29
2023-02-08T15:55:06.342Z,7.35
2023-02-08T15:57:38.757Z,7.29
2023-02-08T16:00:13.003Z,7.22
2023-02-08T16:02:40.617Z,6.67
2023-02-08T16:05:24.293Z,6.38
2023-02-08T16:07:51.838Z,6.49
2023-02-08T16:10:40.625Z,6.29
2023-02-08T16:13:24.856Z,6.36
2023-02-08T16:16:13.614Z,6.04
2023-02-08T16:18:45.815Z,5.79
2023-02-08T16:21:21.206Z,5.98
2023-02-08T16:23:52.073Z,5.85
2023-02-08T16:26:26.481Z,5.05
2023-02-08T16:29:18.094Z,5.77
2023-02-08T16:31:55.568Z,5.63
2023-02-08T16:34:24.927Z,5.80
2023-02-08T16:36:52.534Z,5.83
2023-02-08T16:39:19.032Z,5.63
2023-02-08T16:42:13.935Z,5.40
2023-02-08T16:45:17.034Z,5.66
2023-02-08T16:47:52.863Z,5.79
2023-02-08T16:50:27.704Z,5.35
2023-02-08T16:52:58.928Z,5.54
2023-02-08T16:55:28.564Z,5.28
2023-02-08T16:57:57.110Z,5.72
2023-02-08T17:00:23.686Z,4.88
2023-02-08T17:02:51.014Z,5.67
2023-02-08T17:05:19.563Z,5.67
2023-02-08T17:07:46.230Z,5.39
2023-02-08T17:10:42.957Z,5.63
2023-02-08T17:13:20.446Z,5.53
2023-02-08T17:15:50.521Z,5.27
2023-02-08T17:18:17.812Z,5.30
2023-02-08T17:20:44.729Z,5.49
2023-02-08T17:23:11.757Z,5.56
2023-02-08T17:25:38.990Z,5.54
2023-02-08T17:28:08.248Z,5.28
2023-02-08T17:30:37.795Z,5.23
2023-02-08T17:33:06.538Z,5.24
2023-02-08T17:35:34.341Z,5.29
2023-02-08T17:38:01.769Z,5.09
2023-02-08T17:40:32.694Z,5.04
2023-02-08T17:43:04.585Z,4.85
2023-02-08T17:45:31.860Z,5.28
2023-02-08T17:48:01.247Z,5.08
2023-02-08T17:50:27.910Z,5.18
2023-02-08T17:52:55.658Z,5.28
2023-02-08T17:55:22.991Z,5.16
2023-02-08T17:57:49.624Z,5.07
2023-02-08T18:00:19.420Z,5.14
2023-02-08T18:02:48.670Z,5.12
2023-02-08T18:05:21.846Z,5.18
2023-02-08T18:07:49.582Z,5.20
2023-02-08T18:10:16.411Z,4.93
2023-02-08T18:12:43.273Z,5.10
2023-02-08T18:15:12.647Z,5.12
2023-02-08T18:17:40.242Z,4.93
2023-02-08T18:20:08.691Z,4.91
2023-02-08T18:22:36.551Z,5.02
2023-02-08T18:25:03.474Z,5.03
2023-02-08T18:27:30.534Z,5.05
2023-02-08T18:29:57.079Z,5.04
2023-02-08T18:32:24.068Z,4.84
2023-02-08T18:34:50.636Z,4.74
2023-02-08T18:37:17.264Z,4.96
2023-02-08T18:39:43.903Z,5.00
2023-02-08T18:42:11.708Z,4.97
2023-02-08T18:44:38.738Z,5.02
2023-02-08T18:47:07.434Z,5.01
2023-02-08T18:49:40.306Z,4.89
2023-02-08T18:52:11.710Z,4.79
2023-02-08T18:54:39.504Z,4.96
2023-02-08T18:57:09.305Z,4.98
2023-02-08T18:59:36.298Z,4.82
2023-02-08T19:02:02.970Z,4.99
2023-02-08T19:04:29.765Z,4.92
2023-02-08T19:06:56.272Z,4.92
2023-02-08T19:09:22.804Z,4.92
2023-02-08T19:11:49.453Z,4.97
2023-02-08T19:14:16.031Z,4.92
2023-02-08T19:16:46.113Z,4.85
2023-02-08T19:19:13.376Z,4.95
2023-02-08T19:21:39.987Z,4.92
2023-02-08T19:24:06.973Z,4.79
2023-02-08T19:26:41.482Z,4.75
2023-02-08T19:29:13.407Z,4.71
2023-02-08T19:31:41.058Z,4.73
2023-02-08T19:34:10.533Z,4.62
2023-02-08T19:36:41.422Z,4.53
2023-02-08T19:39:08.315Z,4.50
2023-02-08T19:41:37.617Z,4.53
2023-02-08T19:44:06.413Z,4.55
2023-02-08T19:46:35.120Z,4.53
2023-02-08T19:49:02.188Z,4.53
2023-02-08T19:51:32.569Z,4.43
2023-02-08T19:54:00.784Z,4.42
2023-02-08T19:56:31.101Z,4.39
2023-02-08T19:58:57.702Z,4.17
2023-02-08T20:01:24.296Z,4.33
2023-02-08T20:03:53.389Z,4.32
2023-02-08T20:06:25.489Z,4.30
2023-02-08T20:08:52.330Z,4.35
2023-02-08T20:11:21.548Z,4.32
2023-02-08T20:13:49.108Z,4.30
2023-02-08T20:16:16.560Z,4.26
2023-02-08T20:18:43.062Z,4.34
2023-02-08T20:21:10.199Z,4.30
2023-02-08T20:23:37.434Z,4.32
2023-02-08T20:26:09.903Z,4.30
2023-02-08T20:28:38.333Z,4.22
2023-02-08T20:31:10.779Z,4.27
2023-02-08T20:33:37.409Z,4.21
2023-02-08T20:36:10.268Z,4.16
2023-02-08T20:38:38.210Z,4.15
2023-02-08T20:41:07.108Z,4.06
2023-02-08T20:43:34.935Z,4.10
2023-02-08T20:46:05.864Z,4.12
2023-02-08T20:48:32.773Z,4.04
2023-02-08T20:51:10.963Z,4.09
2023-02-08T20:53:38.999Z,4.07
2023-02-08T20:56:12.068Z,4.03
2023-02-08T20:58:39.062Z,4.01
2023-02-08T21:01:15.749Z,3.90
2023-02-08T21:03:42.922Z,3.95
2023-02-08T21:06:16.744Z,3.85
2023-02-08T21:08:44.002Z,3.82
2023-02-08T21:11:12.041Z,3.76
2023-02-08T21:13:38.800Z,3.72
2023-02-08T21:16:09.203Z,3.64
2023-02-08T21:18:36.673Z,3.67
2023-02-08T21:21:04.786Z,3.65
2023-02-08T21:23:31.886Z,3.68
2023-02-08T21:25:59.802Z,3.59
2023-02-08T21:28:26.698Z,3.57
2023-02-08T21:30:59.013Z,3.58
2023-02-08T21:33:26.060Z,3.64
2023-02-08T21:35:52.576Z,3.57
2023-02-08T21:38:19.512Z,3.62
2023-02-08T21:40:46.418Z,3.57
2023-02-08T21:43:13.804Z,3.63
2023-02-08T21:45:40.386Z,3.61
2023-02-08T21:48:07.100Z,3.63
2023-02-08T21:50:52.395Z,3.62
2023-02-08T21:53:37.486Z,3.63
2023-02-08T21:56:04.276Z,3.52
2023-02-08T21:58:30.858Z,3.57
2023-02-08T22:00:57.505Z,3.58
2023-02-08T22:03:24.214Z,3.52
2023-02-08T22:05:50.806Z,3.50
2023-02-08T22:08:17.361Z,3.47
2023-02-08T22:10:53.400Z,3.19
2023-02-08T22:13:24.263Z,3.28
2023-02-08T22:15:50.876Z,3.32
2023-02-08T22:18:17.443Z,3.18
2023-02-08T22:20:45.008Z,3.29
2023-02-08T22:23:11.769Z,3.20
2023-02-08T22:25:38.913Z,3.18
2023-02-08T22:28:06.449Z,3.27
2023-02-08T22:30:33.055Z,3.15
2023-02-08T22:32:59.599Z,3.12
2023-02-08T22:35:26.192Z,2.95
2023-02-08T22:37:52.779Z,2.80
2023-02-08T22:40:20.145Z,2.62
2023-02-08T22:42:46.764Z,2.67
2023-02-08T22:45:13.356Z,2.65
2023-02-08T22:47:39.927Z,2.43
2023-02-08T22:50:06.955Z,2.58
2023-02-08T22:52:34.515Z,2.59
2023-02-08T22:55:03.842Z,2.56
2023-02-08T22:57:35.081Z,2.44
2023-02-08T23:00:02.565Z,2.33
2023-02-08T23:02:29.309Z,2.37
2023-02-08T23:04:55.966Z,2.30
2023-02-08T23:07:22.521Z,2.30
2023-02-08T23:09:49.072Z,2.24
2023-02-08T23:12:15.640Z,2.29
2023-02-08T23:14:42.227Z,2.21
2023-02-08T23:17:08.765Z,2.18
2023-02-08T23:19:35.338Z,1.97
2023-02-08T23:22:01.868Z,1.79
2023-02-08T23:24:28.487Z,1.73
2023-02-08T23:26:55.052Z,1.69
2023-02-08T23:29:21.598Z,1.63
2023-02-08T23:31:48.278Z,1.56
2023-02-08T23:34:14.920Z,1.49
2023-02-08T23:36:41.756Z,1.49
2023-02-08T23:39:08.404Z,1.47
2023-02-08T23:41:34.982Z,1.54
2023-02-08T23:44:02.002Z,1.48
2023-02-08T23:46:29.761Z,1.43
2023-02-08T23:48:56.394Z,1.62
2023-02-08T23:51:25.013Z,1.57
2023-02-08T23:53:53.207Z,1.58
2023-02-08T23:56:21.339Z,1.48
2023-02-08T23:58:49.892Z,1.51
